sensor_id;sensor_type;location;lat;lon;timestamp;temperature;humidity
11385;DHT22;5747;56.748;13.882;2023-12-22T00:01:36;-0.60;99.90
11385;DHT22;5747;56.748;13.882;2023-12-22T00:04:04;-0.60;99.90
11385;DHT22;5747;56.748;13.882;2023-12-22T00:06:33;-0.70;99.90
11385;DHT22;5747;56.748;13.882;2023-12-22T00:09:03;-0.70;99.90
11385;DHT22;5747;56.748;13.882;2023-12-22T00:11:31;-0.70;99.90
11385;DHT22;5747;56.748;13.882;2023-12-22T00:13:59;-0.70;99.90
11385;DHT22;5747;56.748;13.882;2023-12-22T00:16:27;-0.70;99.90
11385;DHT22;5747;56.748;13.882;2023-12-22T00:18:56;-0.70;99.90
11385;DHT22;5747;56.748;13.882;2023-12-22T00:21:24;-0.70;99.90
11385;DHT22;5747;56.748;13.882;2023-12-22T00:23:54;-0.70;99.90
11385;DHT22;5747;56.748;13.882;2023-12-22T00:26:25;-0.60;99.90
11385;DHT22;5747;56.748;13.882;2023-12-22T00:28:53;-0.60;99.90
11385;DHT22;5747;56.748;13.882;2023-12-22T00:31:21;-0.60;99.90
11385;DHT22;5747;56.748;13.882;2023-12-22T00:33:49;-0.60;99.90
11385;DHT22;5747;56.748;13.882;2023-12-22T00:36:17;-0.70;99.90
11385;DHT22;5747;56.748;13.882;2023-12-22T00:38:49;-0.70;99.90
11385;DHT22;5747;56.748;13.882;2023-12-22T00:41:18;-0.60;99.90
11385;DHT22;5747;56.748;13.882;2023-12-22T00:43:47;-0.70;99.90
11385;DHT22;5747;56.748;13.882;2023-12-22T00:46:15;-0.70;99.90
11385;DHT22;5747;56.748;13.882;2023-12-22T00:48:44;-0.60;99.90
11385;DHT22;5747;56.748;13.882;2023-12-22T00:51:12;-0.60;99.90
11385;DHT22;5747;56.748;13.882;2023-12-22T00:53:40;-0.60;99.90
11385;DHT22;5747;56.748;13.882;2023-12-22T00:56:08;-0.60;99.90
11385;DHT22;5747;56.748;13.882;2023-12-22T00:58:36;-0.60;99.90
11385;DHT22;5747;56.748;13.882;2023-12-22T01:01:06;-0.70;99.90
11385;DHT22;5747;56.748;13.882;2023-12-22T01:03:34;-0.70;99.90
11385;DHT22;5747;56.748;13.882;2023-12-22T01:06:03;-0.70;99.90
11385;DHT22;5747;56.748;13.882;2023-12-22T01:08:31;-0.70;99.90
11385;DHT22;5747;56.748;13.882;2023-12-22T01:11:00;-0.70;99.90
11385;DHT22;5747;56.748;13.882;2023-12-22T01:13:28;-0.70;99.90
11385;DHT22;5747;56.748;13.882;2023-12-22T01:15:56;-0.80;99.90
11385;DHT22;5747;56.748;13.882;2023-12-22T01:18:25;-0.80;99.90
11385;DHT22;5747;56.748;13.882;2023-12-22T01:20:57;-0.70;99.90
11385;DHT22;5747;56.748;13.882;2023-12-22T01:23:25;-0.80;99.90
11385;DHT22;5747;56.748;13.882;2023-12-22T01:25:53;-0.70;99.90
11385;DHT22;5747;56.748;13.882;2023-12-22T01:28:21;-0.80;99.90
11385;DHT22;5747;56.748;13.882;2023-12-22T01:30:49;-0.80;99.90
11385;DHT22;5747;56.748;13.882;2023-12-22T01:33:17;-0.80;99.90
11385;DHT22;5747;56.748;13.882;2023-12-22T01:35:47;-0.80;99.90
11385;DHT22;5747;56.748;13.882;2023-12-22T01:38:15;-0.80;99.90
11385;DHT22;5747;56.748;13.882;2023-12-22T01:40:43;-0.80;99.90
11385;DHT22;5747;56.748;13.882;2023-12-22T01:43:11;-0.80;99.90
11385;DHT22;5747;56.748;13.882;2023-12-22T01:45:41;-0.80;99.90
11385;DHT22;5747;56.748;13.882;2023-12-22T01:48:11;-0.80;99.90
11385;DHT22;5747;56.748;13.882;2023-12-22T01:50:39;-0.80;99.90
11385;DHT22;5747;56.748;13.882;2023-12-22T01:53:10;-0.80;99.90
11385;DHT22;5747;56.748;13.882;2023-12-22T01:55:38;-0.80;99.90
11385;DHT22;5747;56.748;13.882;2023-12-22T01:58:07;-0.80;99.90
11385;DHT22;5747;56.748;13.882;2023-12-22T02:00:36;-0.80;99.90
11385;DHT22;5747;56.748;13.882;2023-12-22T02:03:04;-0.80;99.90
11385;DHT22;5747;56.748;13.882;2023-12-22T02:05:33;-0.80;99.90
11385;DHT22;5747;56.748;13.882;2023-12-22T02:08:01;-0.80;99.90
11385;DHT22;5747;56.748;13.882;2023-12-22T02:10:30;-0.90;99.90
11385;DHT22;5747;56.748;13.882;2023-12-22T02:12:59;-0.80;99.90
11385;DHT22;5747;56.748;13.882;2023-12-22T02:15:27;-0.80;99.90
11385;DHT22;5747;56.748;13.882;2023-12-22T02:18:01;-0.80;99.90
11385;DHT22;5747;56.748;13.882;2023-12-22T02:20:31;-0.90;99.90
11385;DHT22;5747;56.748;13.882;2023-12-22T02:23:01;-0.90;99.90
11385;DHT22;5747;56.748;13.882;2023-12-22T02:25:29;-0.90;99.90
11385;DHT22;5747;56.748;13.882;2023-12-22T02:28:00;-0.90;99.90
11385;DHT22;5747;56.748;13.882;2023-12-22T02:30:33;-0.90;99.90
11385;DHT22;5747;56.748;13.882;2023-12-22T02:33:05;-0.90;99.90
11385;DHT22;5747;56.748;13.882;2023-12-22T02:35:36;-1.00;99.90
11385;DHT22;5747;56.748;13.882;2023-12-22T02:38:07;-1.00;99.90
11385;DHT22;5747;56.748;13.882;2023-12-22T02:40:36;-1.00;99.90
11385;DHT22;5747;56.748;13.882;2023-12-22T02:43:05;-1.10;99.90
11385;DHT22;5747;56.748;13.882;2023-12-22T02:45:34;-1.10;99.90
11385;DHT22;5747;56.748;13.882;2023-12-22T02:48:03;-1.10;99.90
11385;DHT22;5747;56.748;13.882;2023-12-22T02:50:31;-1.10;99.90
11385;DHT22;5747;56.748;13.882;2023-12-22T02:52:59;-1.20;99.90
11385;DHT22;5747;56.748;13.882;2023-12-22T02:55:29;-1.20;99.90
11385;DHT22;5747;56.748;13.882;2023-12-22T02:57:57;-1.30;99.90
11385;DHT22;5747;56.748;13.882;2023-12-22T03:00:25;-1.30;99.90
11385;DHT22;5747;56.748;13.882;2023-12-22T03:02:53;-1.40;99.90
11385;DHT22;5747;56.748;13.882;2023-12-22T03:05:21;-1.40;99.90
11385;DHT22;5747;56.748;13.882;2023-12-22T03:07:49;-1.40;99.90
11385;DHT22;5747;56.748;13.882;2023-12-22T03:10:18;-1.40;99.90
11385;DHT22;5747;56.748;13.882;2023-12-22T03:12:48;-1.40;99.90
11385;DHT22;5747;56.748;13.882;2023-12-22T03:15:16;-1.40;99.90
11385;DHT22;5747;56.748;13.882;2023-12-22T03:17:44;-1.40;99.90
11385;DHT22;5747;56.748;13.882;2023-12-22T03:20:13;-1.40;99.90
11385;DHT22;5747;56.748;13.882;2023-12-22T03:22:41;-1.40;99.90
11385;DHT22;5747;56.748;13.882;2023-12-22T03:25:09;-1.40;99.90
11385;DHT22;5747;56.748;13.882;2023-12-22T03:27:37;-1.50;99.90
11385;DHT22;5747;56.748;13.882;2023-12-22T03:30:08;-1.50;99.90
11385;DHT22;5747;56.748;13.882;2023-12-22T03:32:36;-1.50;99.90
11385;DHT22;5747;56.748;13.882;2023-12-22T03:35:05;-1.60;99.90
11385;DHT22;5747;56.748;13.882;2023-12-22T03:37:33;-1.50;99.90
11385;DHT22;5747;56.748;13.882;2023-12-22T03:40:01;-1.50;99.90
11385;DHT22;5747;56.748;13.882;2023-12-22T03:42:30;-1.60;99.90
11385;DHT22;5747;56.748;13.882;2023-12-22T03:44:58;-1.60;99.90
11385;DHT22;5747;56.748;13.882;2023-12-22T03:47:28;-1.60;99.90
11385;DHT22;5747;56.748;13.882;2023-12-22T03:49:56;-1.60;99.90
11385;DHT22;5747;56.748;13.882;2023-12-22T03:52:24;-1.60;99.90
11385;DHT22;5747;56.748;13.882;2023-12-22T03:54:53;-1.60;99.90
11385;DHT22;5747;56.748;13.882;2023-12-22T03:57:21;-1.60;99.90
11385;DHT22;5747;56.748;13.882;2023-12-22T03:59:49;-1.60;99.90
11385;DHT22;5747;56.748;13.882;2023-12-22T04:02:17;-1.60;99.90
11385;DHT22;5747;56.748;13.882;2023-12-22T04:04:47;-1.60;99.90
11385;DHT22;5747;56.748;13.882;2023-12-22T04:07:15;-1.60;99.90
11385;DHT22;5747;56.748;13.882;2023-12-22T04:09:43;-1.70;99.90
11385;DHT22;5747;56.748;13.882;2023-12-22T04:12:11;-1.70;99.90
11385;DHT22;5747;56.748;13.882;2023-12-22T04:14:39;-1.70;99.90
11385;DHT22;5747;56.748;13.882;2023-12-22T04:17:07;-1.70;99.90
11385;DHT22;5747;56.748;13.882;2023-12-22T04:19:36;-1.70;99.90
11385;DHT22;5747;56.748;13.882;2023-12-22T04:22:06;-1.70;99.90
11385;DHT22;5747;56.748;13.882;2023-12-22T04:24:34;-1.60;99.90
11385;DHT22;5747;56.748;13.882;2023-12-22T04:27:02;-1.70;99.90
11385;DHT22;5747;56.748;13.882;2023-12-22T04:29:31;-1.70;99.90
11385;DHT22;5747;56.748;13.882;2023-12-22T04:31:59;-1.70;99.90
11385;DHT22;5747;56.748;13.882;2023-12-22T04:34:27;-1.60;99.90
11385;DHT22;5747;56.748;13.882;2023-12-22T04:36:56;-1.60;99.90
11385;DHT22;5747;56.748;13.882;2023-12-22T04:39:25;-1.60;99.90
11385;DHT22;5747;56.748;13.882;2023-12-22T04:41:53;-1.60;99.90
11385;DHT22;5747;56.748;13.882;2023-12-22T04:44:21;-1.60;99.90
11385;DHT22;5747;56.748;13.882;2023-12-22T04:46:49;-1.60;99.90
11385;DHT22;5747;56.748;13.882;2023-12-22T04:49:18;-1.60;99.90
11385;DHT22;5747;56.748;13.882;2023-12-22T04:51:46;-1.60;99.90
11385;DHT22;5747;56.748;13.882;2023-12-22T04:54:14;-1.60;99.90
11385;DHT22;5747;56.748;13.882;2023-12-22T04:56:44;-1.60;99.90
11385;DHT22;5747;56.748;13.882;2023-12-22T04:59:12;-1.50;99.90
11385;DHT22;5747;56.748;13.882;2023-12-22T05:01:40;-1.60;99.90
11385;DHT22;5747;56.748;13.882;2023-12-22T05:04:09;-1.60;99.90
11385;DHT22;5747;56.748;13.882;2023-12-22T05:06:38;-1.50;99.90
11385;DHT22;5747;56.748;13.882;2023-12-22T05:09:06;-1.50;99.90
11385;DHT22;5747;56.748;13.882;2023-12-22T05:11:34;-1.50;99.90
11385;DHT22;5747;56.748;13.882;2023-12-22T05:14:04;-1.50;99.90
11385;DHT22;5747;56.748;13.882;2023-12-22T05:16:32;-1.50;99.90
11385;DHT22;5747;56.748;13.882;2023-12-22T05:19:00;-1.50;99.90
11385;DHT22;5747;56.748;13.882;2023-12-22T05:21:29;-1.50;99.90
11385;DHT22;5747;56.748;13.882;2023-12-22T05:23:57;-1.50;99.90
11385;DHT22;5747;56.748;13.882;2023-12-22T05:26:25;-1.50;99.90
11385;DHT22;5747;56.748;13.882;2023-12-22T05:28:57;-1.50;99.90
11385;DHT22;5747;56.748;13.882;2023-12-22T05:31:26;-1.50;99.90
11385;DHT22;5747;56.748;13.882;2023-12-22T05:33:55;-1.50;99.90
11385;DHT22;5747;56.748;13.882;2023-12-22T05:36:23;-1.50;99.90
11385;DHT22;5747;56.748;13.882;2023-12-22T05:38:52;-1.50;99.90
11385;DHT22;5747;56.748;13.882;2023-12-22T05:41:20;-1.50;99.90
11385;DHT22;5747;56.748;13.882;2023-12-22T05:43:48;-1.40;99.90
11385;DHT22;5747;56.748;13.882;2023-12-22T05:46:17;-1.40;99.90
11385;DHT22;5747;56.748;13.882;2023-12-22T05:48:46;-1.40;99.90
11385;DHT22;5747;56.748;13.882;2023-12-22T05:51:14;-1.40;99.90
11385;DHT22;5747;56.748;13.882;2023-12-22T05:53:42;-1.40;99.90
11385;DHT22;5747;56.748;13.882;2023-12-22T05:56:17;-1.40;99.90
11385;DHT22;5747;56.748;13.882;2023-12-22T05:58:47;-1.40;99.90
11385;DHT22;5747;56.748;13.882;2023-12-22T06:01:16;-1.40;99.90
11385;DHT22;5747;56.748;13.882;2023-12-22T06:03:46;-1.30;99.90
11385;DHT22;5747;56.748;13.882;2023-12-22T06:06:15;-1.30;99.90
11385;DHT22;5747;56.748;13.882;2023-12-22T06:08:43;-1.30;99.90
11385;DHT22;5747;56.748;13.882;2023-12-22T06:11:11;-1.30;99.90
11385;DHT22;5747;56.748;13.882;2023-12-22T06:13:39;-1.40;99.90
11385;DHT22;5747;56.748;13.882;2023-12-22T06:16:11;-1.40;99.90
11385;DHT22;5747;56.748;13.882;2023-12-22T06:18:40;-1.30;99.90
11385;DHT22;5747;56.748;13.882;2023-12-22T06:21:10;-1.30;99.90
11385;DHT22;5747;56.748;13.882;2023-12-22T06:23:38;-1.30;99.90
11385;DHT22;5747;56.748;13.882;2023-12-22T06:26:09;-1.30;99.90
11385;DHT22;5747;56.748;13.882;2023-12-22T06:28:39;-1.30;99.90
11385;DHT22;5747;56.748;13.882;2023-12-22T06:31:15;-1.30;99.90
11385;DHT22;5747;56.748;13.882;2023-12-22T06:33:45;-1.20;99.90
11385;DHT22;5747;56.748;13.882;2023-12-22T06:36:22;-1.30;99.90
11385;DHT22;5747;56.748;13.882;2023-12-22T06:38:50;-1.20;99.90
11385;DHT22;5747;56.748;13.882;2023-12-22T06:41:21;-1.20;99.90
11385;DHT22;5747;56.748;13.882;2023-12-22T06:43:54;-1.10;99.90
11385;DHT22;5747;56.748;13.882;2023-12-22T06:46:24;-1.10;99.90
11385;DHT22;5747;56.748;13.882;2023-12-22T06:48:54;-1.10;99.90
11385;DHT22;5747;56.748;13.882;2023-12-22T06:51:25;-1.10;99.90
11385;DHT22;5747;56.748;13.882;2023-12-22T06:53:54;-1.00;99.90
11385;DHT22;5747;56.748;13.882;2023-12-22T06:56:24;-1.00;99.90
11385;DHT22;5747;56.748;13.882;2023-12-22T06:58:54;-1.00;99.90
11385;DHT22;5747;56.748;13.882;2023-12-22T07:01:26;-0.90;99.90
11385;DHT22;5747;56.748;13.882;2023-12-22T07:03:55;-0.90;99.90
11385;DHT22;5747;56.748;13.882;2023-12-22T07:06:25;-0.90;99.90
11385;DHT22;5747;56.748;13.882;2023-12-22T07:09:29;-0.90;99.90
11385;DHT22;5747;56.748;13.882;2023-12-22T07:11:57;-0.90;99.90
11385;DHT22;5747;56.748;13.882;2023-12-22T07:14:26;-0.90;99.90
11385;DHT22;5747;56.748;13.882;2023-12-22T07:16:54;-0.80;99.90
11385;DHT22;5747;56.748;13.882;2023-12-22T07:19:25;-0.80;99.90
11385;DHT22;5747;56.748;13.882;2023-12-22T07:21:54;-0.80;99.90
11385;DHT22;5747;56.748;13.882;2023-12-22T07:24:24;-0.80;99.90
11385;DHT22;5747;56.748;13.882;2023-12-22T07:26:52;-0.80;99.90
11385;DHT22;5747;56.748;13.882;2023-12-22T07:29:21;-0.80;99.90
11385;DHT22;5747;56.748;13.882;2023-12-22T07:31:51;-0.70;99.90
11385;DHT22;5747;56.748;13.882;2023-12-22T07:34:19;-0.70;99.90
11385;DHT22;5747;56.748;13.882;2023-12-22T07:36:49;-0.70;99.90
11385;DHT22;5747;56.748;13.882;2023-12-22T07:39:33;-0.70;99.90
11385;DHT22;5747;56.748;13.882;2023-12-22T07:42:04;-0.70;99.90
11385;DHT22;5747;56.748;13.882;2023-12-22T07:44:33;-0.70;99.90
11385;DHT22;5747;56.748;13.882;2023-12-22T07:47:02;-0.60;99.90
11385;DHT22;5747;56.748;13.882;2023-12-22T07:49:30;-0.70;99.90
11385;DHT22;5747;56.748;13.882;2023-12-22T07:51:59;-0.70;99.90
11385;DHT22;5747;56.748;13.882;2023-12-22T07:54:29;-0.60;99.90
11385;DHT22;5747;56.748;13.882;2023-12-22T07:56:59;-0.60;99.90
11385;DHT22;5747;56.748;13.882;2023-12-22T07:59:27;-0.60;99.90
11385;DHT22;5747;56.748;13.882;2023-12-22T08:01:58;-0.60;99.90
11385;DHT22;5747;56.748;13.882;2023-12-22T08:04:27;-0.50;99.90
11385;DHT22;5747;56.748;13.882;2023-12-22T08:06:55;-0.60;99.90
11385;DHT22;5747;56.748;13.882;2023-12-22T08:09:23;-0.60;99.90
11385;DHT22;5747;56.748;13.882;2023-12-22T08:11:51;-0.60;99.90
11385;DHT22;5747;56.748;13.882;2023-12-22T08:14:21;-0.50;99.90
11385;DHT22;5747;56.748;13.882;2023-12-22T08:16:49;-0.50;99.90
11385;DHT22;5747;56.748;13.882;2023-12-22T08:19:18;-0.50;99.90
11385;DHT22;5747;56.748;13.882;2023-12-22T08:21:48;-0.50;99.90
11385;DHT22;5747;56.748;13.882;2023-12-22T08:24:18;-0.40;99.90
11385;DHT22;5747;56.748;13.882;2023-12-22T08:26:49;-0.50;99.90
11385;DHT22;5747;56.748;13.882;2023-12-22T08:29:18;-0.50;99.90
11385;DHT22;5747;56.748;13.882;2023-12-22T08:31:48;-0.50;99.90
11385;DHT22;5747;56.748;13.882;2023-12-22T08:34:16;-0.50;99.90
11385;DHT22;5747;56.748;13.882;2023-12-22T08:36:44;-0.40;99.90
11385;DHT22;5747;56.748;13.882;2023-12-22T08:39:13;-0.40;99.90
11385;DHT22;5747;56.748;13.882;2023-12-22T08:41:41;-0.40;99.90
11385;DHT22;5747;56.748;13.882;2023-12-22T08:44:10;-0.40;99.90
11385;DHT22;5747;56.748;13.882;2023-12-22T08:46:41;-0.40;99.90
11385;DHT22;5747;56.748;13.882;2023-12-22T08:49:11;-0.40;99.90
11385;DHT22;5747;56.748;13.882;2023-12-22T08:51:40;-0.40;99.90
11385;DHT22;5747;56.748;13.882;2023-12-22T08:54:08;-0.40;99.90
11385;DHT22;5747;56.748;13.882;2023-12-22T08:56:36;-0.40;99.90
11385;DHT22;5747;56.748;13.882;2023-12-22T08:59:04;-0.40;99.90
11385;DHT22;5747;56.748;13.882;2023-12-22T09:01:35;-0.30;99.90
11385;DHT22;5747;56.748;13.882;2023-12-22T09:04:03;-0.30;99.90
11385;DHT22;5747;56.748;13.882;2023-12-22T09:06:35;-0.30;99.90
11385;DHT22;5747;56.748;13.882;2023-12-22T09:09:03;-0.20;99.90
11385;DHT22;5747;56.748;13.882;2023-12-22T09:11:33;-0.30;99.90
11385;DHT22;5747;56.748;13.882;2023-12-22T09:14:01;-0.30;99.90
11385;DHT22;5747;56.748;13.882;2023-12-22T09:16:29;-0.30;99.90
11385;DHT22;5747;56.748;13.882;2023-12-22T09:18:57;-0.30;99.90
11385;DHT22;5747;56.748;13.882;2023-12-22T09:21:25;-0.20;99.90
11385;DHT22;5747;56.748;13.882;2023-12-22T09:23:55;-0.20;99.90
11385;DHT22;5747;56.748;13.882;2023-12-22T09:26:23;-0.20;99.90
11385;DHT22;5747;56.748;13.882;2023-12-22T09:28:55;-0.20;99.90
11385;DHT22;5747;56.748;13.882;2023-12-22T09:31:23;-0.20;99.90
11385;DHT22;5747;56.748;13.882;2023-12-22T09:33:52;-0.20;99.90
11385;DHT22;5747;56.748;13.882;2023-12-22T09:36:20;-0.20;99.90
11385;DHT22;5747;56.748;13.882;2023-12-22T09:38:48;-0.20;99.90
11385;DHT22;5747;56.748;13.882;2023-12-22T09:41:18;-0.20;99.90
11385;DHT22;5747;56.748;13.882;2023-12-22T09:43:50;-0.20;99.90
11385;DHT22;5747;56.748;13.882;2023-12-22T09:46:20;-0.20;99.90
11385;DHT22;5747;56.748;13.882;2023-12-22T09:48:50;-0.20;99.90
11385;DHT22;5747;56.748;13.882;2023-12-22T09:51:20;-0.20;99.90
11385;DHT22;5747;56.748;13.882;2023-12-22T09:53:49;-0.20;99.90
11385;DHT22;5747;56.748;13.882;2023-12-22T09:56:20;-0.20;99.90
11385;DHT22;5747;56.748;13.882;2023-12-22T09:58:50;-0.20;99.90
11385;DHT22;5747;56.748;13.882;2023-12-22T10:01:20;-0.20;99.90
11385;DHT22;5747;56.748;13.882;2023-12-22T10:03:50;-0.20;99.90
11385;DHT22;5747;56.748;13.882;2023-12-22T10:06:18;-0.20;99.90
11385;DHT22;5747;56.748;13.882;2023-12-22T10:08:47;-0.20;99.90
11385;DHT22;5747;56.748;13.882;2023-12-22T10:11:20;-0.20;99.90
11385;DHT22;5747;56.748;13.882;2023-12-22T10:13:50;-0.20;99.90
11385;DHT22;5747;56.748;13.882;2023-12-22T10:16:21;-0.20;99.90
11385;DHT22;5747;56.748;13.882;2023-12-22T10:18:49;-0.20;99.90
11385;DHT22;5747;56.748;13.882;2023-12-22T10:21:17;-0.20;99.90
11385;DHT22;5747;56.748;13.882;2023-12-22T10:23:46;-0.10;99.90
11385;DHT22;5747;56.748;13.882;2023-12-22T10:26:14;-0.10;99.90
11385;DHT22;5747;56.748;13.882;2023-12-22T10:28:46;-0.20;99.90
11385;DHT22;5747;56.748;13.882;2023-12-22T10:31:15;-0.10;99.90
11385;DHT22;5747;56.748;13.882;2023-12-22T10:33:43;-0.10;99.90
11385;DHT22;5747;56.748;13.882;2023-12-22T10:36:12;-0.10;99.90
11385;DHT22;5747;56.748;13.882;2023-12-22T10:38:40;-0.20;99.90
11385;DHT22;5747;56.748;13.882;2023-12-22T10:41:10;-0.20;99.90
11385;DHT22;5747;56.748;13.882;2023-12-22T10:43:38;-0.10;99.90
11385;DHT22;5747;56.748;13.882;2023-12-22T10:46:08;-0.10;99.90
11385;DHT22;5747;56.748;13.882;2023-12-22T10:48:39;-0.20;99.90
11385;DHT22;5747;56.748;13.882;2023-12-22T10:51:09;-0.20;99.90
11385;DHT22;5747;56.748;13.882;2023-12-22T10:53:40;-0.20;99.90
11385;DHT22;5747;56.748;13.882;2023-12-22T10:56:09;-0.20;99.90
11385;DHT22;5747;56.748;13.882;2023-12-22T10:58:38;-0.20;99.90
11385;DHT22;5747;56.748;13.882;2023-12-22T11:01:09;-0.20;99.90
11385;DHT22;5747;56.748;13.882;2023-12-22T11:03:40;-0.20;99.90
11385;DHT22;5747;56.748;13.882;2023-12-22T11:06:13;-0.30;99.90
11385;DHT22;5747;56.748;13.882;2023-12-22T11:08:43;-0.20;99.90
11385;DHT22;5747;56.748;13.882;2023-12-22T11:11:16;-0.20;99.90
11385;DHT22;5747;56.748;13.882;2023-12-22T11:13:47;-0.20;99.90
11385;DHT22;5747;56.748;13.882;2023-12-22T11:16:17;-0.20;99.90
11385;DHT22;5747;56.748;13.882;2023-12-22T11:18:47;-0.30;99.90
11385;DHT22;5747;56.748;13.882;2023-12-22T11:21:19;-0.30;99.90
11385;DHT22;5747;56.748;13.882;2023-12-22T11:23:50;-0.40;99.90
11385;DHT22;5747;56.748;13.882;2023-12-22T11:26:19;-0.30;99.90
11385;DHT22;5747;56.748;13.882;2023-12-22T11:28:48;-0.30;99.90
11385;DHT22;5747;56.748;13.882;2023-12-22T11:31:20;-0.20;99.90
11385;DHT22;5747;56.748;13.882;2023-12-22T11:33:49;-0.30;99.90
11385;DHT22;5747;56.748;13.882;2023-12-22T11:36:31;-0.30;99.90
11385;DHT22;5747;56.748;13.882;2023-12-22T11:38:59;-0.30;99.90
11385;DHT22;5747;56.748;13.882;2023-12-22T11:41:31;-0.30;99.90
11385;DHT22;5747;56.748;13.882;2023-12-22T11:44:01;-0.40;99.90
11385;DHT22;5747;56.748;13.882;2023-12-22T11:46:33;-0.30;99.90
11385;DHT22;5747;56.748;13.882;2023-12-22T11:49:02;-0.30;99.90
11385;DHT22;5747;56.748;13.882;2023-12-22T11:51:33;-0.20;99.90
11385;DHT22;5747;56.748;13.882;2023-12-22T11:54:02;-0.20;99.90
11385;DHT22;5747;56.748;13.882;2023-12-22T11:56:31;-0.30;99.90
11385;DHT22;5747;56.748;13.882;2023-12-22T11:58:59;-0.40;99.90
11385;DHT22;5747;56.748;13.882;2023-12-22T12:01:28;-0.40;99.90
11385;DHT22;5747;56.748;13.882;2023-12-22T12:04:02;-0.30;99.90
11385;DHT22;5747;56.748;13.882;2023-12-22T12:06:33;-0.40;99.90
11385;DHT22;5747;56.748;13.882;2023-12-22T12:09:06;-0.30;99.90
11385;DHT22;5747;56.748;13.882;2023-12-22T12:12:08;-0.40;99.90
11385;DHT22;5747;56.748;13.882;2023-12-22T12:14:41;-0.40;99.90
11385;DHT22;5747;56.748;13.882;2023-12-22T12:17:10;-0.40;99.90
11385;DHT22;5747;56.748;13.882;2023-12-22T12:19:40;-0.50;99.90
11385;DHT22;5747;56.748;13.882;2023-12-22T12:22:11;-0.50;99.90
11385;DHT22;5747;56.748;13.882;2023-12-22T12:24:41;-0.60;99.90
11385;DHT22;5747;56.748;13.882;2023-12-22T12:27:09;-0.50;99.90
11385;DHT22;5747;56.748;13.882;2023-12-22T12:29:39;-0.60;99.90
11385;DHT22;5747;56.748;13.882;2023-12-22T12:32:08;-0.60;99.90
11385;DHT22;5747;56.748;13.882;2023-12-22T12:34:37;-0.60;99.90
11385;DHT22;5747;56.748;13.882;2023-12-22T12:37:07;-0.70;99.90
11385;DHT22;5747;56.748;13.882;2023-12-22T12:39:36;-0.70;99.90
11385;DHT22;5747;56.748;13.882;2023-12-22T12:42:07;-0.70;99.90
11385;DHT22;5747;56.748;13.882;2023-12-22T12:44:35;-0.70;99.90
11385;DHT22;5747;56.748;13.882;2023-12-22T12:47:12;-0.70;99.90
11385;DHT22;5747;56.748;13.882;2023-12-22T12:49:41;-0.80;99.90
11385;DHT22;5747;56.748;13.882;2023-12-22T12:52:14;-0.80;99.90
11385;DHT22;5747;56.748;13.882;2023-12-22T12:54:42;-0.80;99.90
11385;DHT22;5747;56.748;13.882;2023-12-22T12:57:14;-0.80;99.90
11385;DHT22;5747;56.748;13.882;2023-12-22T12:59:45;-0.90;99.90
11385;DHT22;5747;56.748;13.882;2023-12-22T13:02:15;-0.80;99.90
11385;DHT22;5747;56.748;13.882;2023-12-22T13:04:44;-0.90;99.90
11385;DHT22;5747;56.748;13.882;2023-12-22T13:07:14;-1.00;99.90
11385;DHT22;5747;56.748;13.882;2023-12-22T13:09:51;-1.00;99.90
11385;DHT22;5747;56.748;13.882;2023-12-22T13:12:21;-1.00;99.90
11385;DHT22;5747;56.748;13.882;2023-12-22T13:14:50;-0.90;99.90
11385;DHT22;5747;56.748;13.882;2023-12-22T13:17:18;-0.90;99.90
11385;DHT22;5747;56.748;13.882;2023-12-22T13:19:46;-0.90;99.90
11385;DHT22;5747;56.748;13.882;2023-12-22T13:22:16;-0.90;99.90
11385;DHT22;5747;56.748;13.882;2023-12-22T13:24:55;-0.90;99.90
11385;DHT22;5747;56.748;13.882;2023-12-22T13:27:23;-1.00;99.90
11385;DHT22;5747;56.748;13.882;2023-12-22T13:29:51;-1.00;99.90
11385;DHT22;5747;56.748;13.882;2023-12-22T13:32:22;-1.00;99.90
11385;DHT22;5747;56.748;13.882;2023-12-22T13:34:52;-1.00;99.90
11385;DHT22;5747;56.748;13.882;2023-12-22T13:37:22;-1.00;99.90
11385;DHT22;5747;56.748;13.882;2023-12-22T13:39:53;-1.00;99.90
11385;DHT22;5747;56.748;13.882;2023-12-22T13:42:21;-1.00;99.90
11385;DHT22;5747;56.748;13.882;2023-12-22T13:44:50;-1.00;99.90
11385;DHT22;5747;56.748;13.882;2023-12-22T13:47:20;-1.00;99.90
11385;DHT22;5747;56.748;13.882;2023-12-22T13:49:48;-0.90;99.90
11385;DHT22;5747;56.748;13.882;2023-12-22T13:52:28;-0.90;99.90
11385;DHT22;5747;56.748;13.882;2023-12-22T13:54:59;-0.90;99.90
11385;DHT22;5747;56.748;13.882;2023-12-22T13:57:29;-0.90;99.90
11385;DHT22;5747;56.748;13.882;2023-12-22T13:59:58;-0.90;99.90
11385;DHT22;5747;56.748;13.882;2023-12-22T14:02:26;-0.90;99.90
11385;DHT22;5747;56.748;13.882;2023-12-22T14:04:53;-1.00;99.90
11385;DHT22;5747;56.748;13.882;2023-12-22T14:07:21;-1.00;99.90
11385;DHT22;5747;56.748;13.882;2023-12-22T14:09:51;-1.00;99.90
11385;DHT22;5747;56.748;13.882;2023-12-22T14:12:19;-0.90;99.90
11385;DHT22;5747;56.748;13.882;2023-12-22T14:14:58;-1.00;99.90
11385;DHT22;5747;56.748;13.882;2023-12-22T14:17:26;-1.00;99.90
11385;DHT22;5747;56.748;13.882;2023-12-22T14:19:57;-1.00;99.90
11385;DHT22;5747;56.748;13.882;2023-12-22T14:22:26;-0.90;99.90
11385;DHT22;5747;56.748;13.882;2023-12-22T14:24:55;-1.00;99.90
11385;DHT22;5747;56.748;13.882;2023-12-22T14:27:23;-1.00;99.90
11385;DHT22;5747;56.748;13.882;2023-12-22T14:29:51;-0.90;99.90
11385;DHT22;5747;56.748;13.882;2023-12-22T14:32:20;-0.90;99.90
11385;DHT22;5747;56.748;13.882;2023-12-22T14:34:48;-0.90;99.90
11385;DHT22;5747;56.748;13.882;2023-12-22T14:37:17;-1.00;99.90
11385;DHT22;5747;56.748;13.882;2023-12-22T14:39:45;-0.90;99.90
11385;DHT22;5747;56.748;13.882;2023-12-22T14:42:14;-0.90;99.90
11385;DHT22;5747;56.748;13.882;2023-12-22T14:44:43;-0.90;99.90
11385;DHT22;5747;56.748;13.882;2023-12-22T14:47:11;-0.90;99.90
11385;DHT22;5747;56.748;13.882;2023-12-22T14:49:40;-0.90;99.90
11385;DHT22;5747;56.748;13.882;2023-12-22T14:52:09;-1.00;99.90
11385;DHT22;5747;56.748;13.882;2023-12-22T14:54:37;-1.00;99.90
11385;DHT22;5747;56.748;13.882;2023-12-22T14:57:05;-0.90;99.90
11385;DHT22;5747;56.748;13.882;2023-12-22T14:59:34;-0.90;99.90
11385;DHT22;5747;56.748;13.882;2023-12-22T15:02:03;-0.90;99.90
11385;DHT22;5747;56.748;13.882;2023-12-22T15:04:32;-1.00;99.90
11385;DHT22;5747;56.748;13.882;2023-12-22T15:07:01;-1.00;99.90
11385;DHT22;5747;56.748;13.882;2023-12-22T15:09:30;-1.00;99.90
11385;DHT22;5747;56.748;13.882;2023-12-22T15:11:58;-1.00;99.90
11385;DHT22;5747;56.748;13.882;2023-12-22T15:14:26;-1.00;99.90
11385;DHT22;5747;56.748;13.882;2023-12-22T15:16:55;-1.00;99.90
11385;DHT22;5747;56.748;13.882;2023-12-22T15:19:24;-1.00;99.90
11385;DHT22;5747;56.748;13.882;2023-12-22T15:21:53;-0.90;99.90
11385;DHT22;5747;56.748;13.882;2023-12-22T15:24:22;-1.00;99.90
11385;DHT22;5747;56.748;13.882;2023-12-22T15:26:50;-1.00;99.90
11385;DHT22;5747;56.748;13.882;2023-12-22T15:29:19;-1.00;99.90
11385;DHT22;5747;56.748;13.882;2023-12-22T15:31:47;-1.00;99.90
11385;DHT22;5747;56.748;13.882;2023-12-22T15:34:18;-1.00;99.90
11385;DHT22;5747;56.748;13.882;2023-12-22T15:36:46;-1.10;99.90
11385;DHT22;5747;56.748;13.882;2023-12-22T15:39:14;-1.10;99.90
11385;DHT22;5747;56.748;13.882;2023-12-22T15:41:42;-1.20;99.90
11385;DHT22;5747;56.748;13.882;2023-12-22T15:44:10;-1.20;99.90